Ames, Oklahoma
Current Conditions -  °F | °C
As of 5:03 AM on Sunday 23 Nov 2014 (Local Time) from KEND Reporting Station
Overcast Overcast  
Wind Chill: 54°   Ceiling: 700
Heat Index: 54°   Visibility: 10mi
Dew Point: 52°   Wind: 16mph
Humidity: 94%   Direction: 170°S
Pressure: 29.47"   Gusts: NA
Location:  36.25°N, 98.19°W
Report Text: KEND 231103Z AUTO 17014KT 10SM OVC007 12/11 A2947 RMK AO2 $
Loading
Personal Weather Stations






























Interactive Weather Map New forecast layout! Learn more

10-Day Weather Forecast

Advertisements
Track Severe Weather on mobile